East Templeton, MA (01438)

7:02 AM EDT on August 29, 2015 (GMT -0400)
S. Main St. East Templeton | | Change Station
CLOSE
Current Station
Personal Weather Station
Location: East Templeton, MA
Elevation: 1033 ft
Nearby Weather Stations

Elev 1033 ft 42.56 °N, 72.04 °W | Updated 2 minutes ago

Partly Cloudy
Partly Cloudy
50.7 °F
Feels Like 50.7 °F
N
0.0
Wind Variable Wind from West
Gusts 0.0 mph

Today
High -- | Low -- °F
--% Chance of Precip.
Yesterday
High -- | Low -- °F
Precip. -- in
6:09 AM 7:27 PM
Full, 100% visible
Pressure 30.21 in
Visibility 0.2 miles
Clouds
Dew Point 50 °F
Humidity 97%
Rainfall 0.00 in
Snow Depth Not available.
UV Not available.
Pollen 9.90 out of 12
Air Quality Not available.
Flu Activity Not available.
METAR KORE 291052Z AUTO 00000KT M1/4SM FG VV002 11/11 A3021 RMK AO2 SLP230 T01110111
Pressure 30.21 in
Visibility 0.2 miles
Clouds
Dew Point 50 °F
Humidity 97%
Rainfall 0.00 in
Snow Depth Not available.
UV Not available.
Pollen 9.90 out of 12
Air Quality Not available.
Flu Activity Not available.
METAR KORE 291052Z AUTO 00000KT M1/4SM FG VV002 11/11 A3021 RMK AO2 SLP230 T01110111

10-Day Weather Forecast

×

Almanac

Astronomy

Aug. 29, 2015 Rise Set
Actual Time
Civil Twilight
Nautical Twilight
Astronomical Twilight
Moon
Length of Visible Light
Length of Day
Tomorrow will be .
, % of the Moon is Illuminated

Today's Extremes

State Highs State Lows

Community

WunderPhotos

Upload Photos

1,850,651 photos uploaded!

WunderBlogs® & News

Nearby

Air Quality

  Air Quality AQ Index Pollutant
Not available.

Snow Depth

Station Depth Elevation

Earthquake Activity

City Distance Mag. Time & Date
Minimum magnitude displayed is 2.5.

Coastal Water Temperatures

Place Temperature

Stations

Nearby Weather Stations

Station Location Temp. Windchill Dew Point Humidity Wind Precip. Elev Updated Type